Terminal Aerodrome Forecast
Issued by NWS Shreveport, LA

Home | Current Version | Previous Version | Text Only | Print | Product List | Glossary On
Versions: 1 2 3 4 5 6 7 8 9 10 11 12 13 14 15 16 17 18
000
FTUS44 KSHV 041140
TAFTXK
TAF
KTXK 041140Z 0412/0512 31010KT P6SM VCTS BKN016 BKN060CB OVC080
      TEMPO 0413/0416 VRB10G25KT 2SM -TSRA BKN016CB
     FM041600 24007KT P6SM VCTS SCT030CB BKN100 OVC150
     FM050000 19005KT P6SM VCTS BKN050CB=

USA.gov is the U.S. government's official web portal to all federal, state and local government web resources and services.